Terminal Aerodrome Forecast
Issued by NWS

Home | Current Version | Previous Version | Text Only | Print | Product List | Glossary On
Versions: 1 2 3 4 5 6 7 8 9 10 11 12 13 14 15 16 17 18 19 20 21 22 23 24 25 26 27 28 29 30 31 32
000
FTUS45 KBOI 290520
TAFJER
TAF
KJER 290520Z 2906/3006 08010KT P6SM VCSH SCT120
     FM291500 22010KT P6SM VCSH FEW120 BKN250
     FM291800 28010KT P6SM FEW120 BKN250
     FM300300 12010KT P6SM VCSH FEW120 FEW200=

USA.gov is the U.S. government's official web portal to all federal, state and local government web resources and services.